Time;durP1;ratioP1;P1;durP2;ratioP2;P2;SDS_P1;SDS_P2;PMS_P1;PMS_P2;Temp;Humidity;BMP_temperature;BMP_pressure;BME280_temperature;BME280_humidity;BME280_pressure;Samples;Min_cycle;Max_cycle;Signal;HPM_P1;HPM_P2
2023/10/09 00:00:50;;;;;;;22.60;10.13;;;14.40;99.90;;;;;;4970820;28;20039;-79
2023/10/09 00:03:19;;;;;;;29.75;14.55;;;14.40;99.90;;;;;;4977010;28;20045;-80
2023/10/09 00:08:16;;;;;;;32.40;12.88;;;14.20;99.90;;;;;;4971158;28;20046;-79
2023/10/09 00:13:37;;;;;;;21.83;10.55;;;14.30;99.90;;;;;;4960681;28;20306;-79
2023/10/09 00:16:13;;;;;;;18.88;8.80;;;14.30;99.90;;;;;;4957687;28;20035;-80
2023/10/09 00:18:39;;;;;;;19.80;9.65;;;14.30;99.90;;;;;;4972709;28;20045;-80
2023/10/09 00:21:11;;;;;;;22.10;10.77;;;14.30;99.90;;;;;;4974900;28;20030;-80
2023/10/09 00:23:38;;;;;;;20.60;10.98;;;14.30;99.90;;;;;;4975136;28;20034;-77
2023/10/09 00:26:21;;;;;;;19.38;9.65;;;14.40;99.90;;;;;;4956332;28;20490;-77
2023/10/09 00:28:47;;;;;;;26.92;12.88;;;14.40;99.90;;;;;;4971864;28;20057;-76
2023/10/09 00:31:26;;;;;;;27.20;11.07;;;14.30;99.90;;;;;;4973275;28;20510;-77
2023/10/09 00:33:52;;;;;;;16.23;9.45;;;14.30;99.90;;;;;;4978924;28;20061;-77
2023/10/09 00:36:27;;;;;;;21.73;9.43;;;14.40;99.90;;;;;;4976907;28;20487;-79
2023/10/09 00:38:53;;;;;;;16.10;9.47;;;14.40;99.90;;;;;;4981137;28;20033;-78
2023/10/09 00:41:24;;;;;;;21.15;10.07;;;14.40;99.90;;;;;;4973898;28;20257;-78
2023/10/09 00:43:51;;;;;;;18.95;9.00;;;14.50;99.90;;;;;;4957175;28;20368;-76
2023/10/09 00:48:50;;;;;;;19.48;8.45;;;14.60;99.90;;;;;;4974511;28;20044;-77
2023/10/09 00:51:18;;;;;;;15.95;8.68;;;14.70;99.90;;;;;;4967544;28;20039;-77
2023/10/09 00:54:07;;;;;;;17.92;8.93;;;14.60;99.90;;;;;;4974493;28;20566;-77
2023/10/09 00:56:39;;;;;;;15.63;8.73;;;14.60;99.90;;;;;;4943555;28;20064;-77
2023/10/09 00:59:14;;;;;;;19.70;8.73;;;14.70;99.90;;;;;;4961892;28;20027;-77
2023/10/09 01:01:45;;;;;;;20.13;9.38;;;14.60;99.90;;;;;;4972105;28;20046;-79
2023/10/09 01:04:11;;;;;;;22.42;10.73;;;14.60;99.90;;;;;;4979613;28;20045;-78
2023/10/09 01:06:44;;;;;;;16.88;8.52;;;14.70;99.90;;;;;;4973212;28;20038;-77
2023/10/09 01:09:14;;;;;;;19.63;9.55;;;14.70;99.90;;;;;;4944462;28;20713;-78
2023/10/09 01:11:51;;;;;;;21.45;10.02;;;14.60;99.90;;;;;;4975189;28;20035;-78
2023/10/09 01:14:17;;;;;;;20.33;10.13;;;14.70;99.90;;;;;;4949868;28;20041;-78
2023/10/09 01:16:43;;;;;;;16.48;8.00;;;14.70;99.90;;;;;;4975526;28;20038;-78
2023/10/09 01:19:23;;;;;;;18.75;10.73;;;14.60;99.90;;;;;;4982642;28;20045;-77
2023/10/09 01:21:50;;;;;;;15.88;7.35;;;14.60;99.90;;;;;;4964125;28;20126;-78
2023/10/09 01:24:16;;;;;;;17.38;9.00;;;14.60;99.90;;;;;;4961885;28;20061;-77
2023/10/09 01:26:46;;;;;;;13.77;8.88;;;14.60;99.90;;;;;;4960329;28;20133;-81
2023/10/09 01:29:16;;;;;;;17.80;7.57;;;14.60;99.90;;;;;;4960299;28;20100;-78
2023/10/09 01:31:54;;;;;;;15.95;8.65;;;14.70;99.90;;;;;;4978547;28;20502;-79
2023/10/09 01:34:41;;;;;;;12.68;7.00;;;14.70;99.90;;;;;;4974809;28;21207;-78
2023/10/09 01:37:46;;;;;;;15.77;9.20;;;14.60;99.90;;;;;;4975859;28;20022;-78
2023/10/09 01:42:47;;;;;;;12.88;7.43;;;14.60;99.90;;;;;;4976119;28;20038;-78
2023/10/09 01:47:51;;;;;;;16.20;7.38;;;14.60;99.90;;;;;;4963382;28;20046;-78
2023/10/09 01:50:22;;;;;;;13.30;8.38;;;14.70;99.90;;;;;;4979782;28;20058;-78
2023/10/09 01:52:47;;;;;;;14.93;7.38;;;14.70;99.90;;;;;;4976313;28;20447;-78
2023/10/09 01:55:28;;;;;;;18.30;9.00;;;14.70;99.90;;;;;;4976528;28;20037;-79
2023/10/09 01:57:54;;;;;;;18.60;8.40;;;14.60;99.90;;;;;;4960832;28;20125;-79
2023/10/09 02:00:24;;;;;;;16.35;8.20;;;14.60;99.90;;;;;;4961123;28;20125;-78
2023/10/09 02:02:50;;;;;;;13.10;7.53;;;14.60;99.90;;;;;;4975354;28;20425;-78
2023/10/09 02:07:44;;;;;;;13.82;7.50;;;14.70;99.90;;;;;;4975355;28;20058;-78
2023/10/09 02:12:58;;;;;;;14.02;8.20;;;14.60;99.90;;;;;;4970892;28;20142;-79
2023/10/09 02:18:26;;;;;;;18.25;10.68;;;14.60;99.90;;;;;;4978710;28;20543;-77
2023/10/09 02:21:12;;;;;;;12.13;7.38;;;14.60;99.90;;;;;;4978538;28;20779;-78
2023/10/09 02:23:49;;;;;;;17.38;8.20;;;14.70;99.90;;;;;;4962175;28;20046;-78
2023/10/09 02:31:40;;;;;;;15.35;7.70;;;14.60;99.90;;;;;;4977722;28;20041;-78
2023/10/09 02:34:07;;;;;;;14.98;7.28;;;14.60;99.90;;;;;;4973655;28;22448;-78
2023/10/09 02:36:43;;;;;;;15.07;6.55;;;14.70;99.90;;;;;;4962478;28;20033;-78
2023/10/09 02:39:23;;;;;;;23.17;11.85;;;14.70;99.90;;;;;;4977171;28;20054;-79
2023/10/09 02:42:42;;;;;;;13.80;7.97;;;14.80;99.90;;;;;;4970476;28;20783;-78
2023/10/09 02:44:46;;;;;;;15.57;8.05;;;14.80;99.90;;;;;;4976906;28;20121;-79
2023/10/09 02:47:31;;;;;;;12.77;7.40;;;14.80;99.90;;;;;;4956654;28;20034;-78
2023/10/09 02:50:06;;;;;;;14.05;8.00;;;14.80;99.90;;;;;;4965227;28;20140;-78
2023/10/09 02:52:40;;;;;;;19.60;9.13;;;14.80;99.90;;;;;;4959527;28;20032;-78
2023/10/09 02:55:12;;;;;;;17.88;9.88;;;14.70;99.90;;;;;;4960088;28;20033;-79
2023/10/09 02:57:37;;;;;;;15.75;7.40;;;14.80;99.90;;;;;;4976489;28;20045;-78
2023/10/09 03:00:08;;;;;;;15.60;8.23;;;14.80;99.90;;;;;;4958949;28;20022;-78
2023/10/09 03:02:35;;;;;;;16.38;9.15;;;14.80;99.90;;;;;;4974863;28;20093;-78
2023/10/09 03:05:03;;;;;;;12.88;7.97;;;14.90;99.90;;;;;;4974471;28;20065;-78
2023/10/09 03:07:28;;;;;;;14.88;8.35;;;14.90;99.90;;;;;;4971142;28;20064;-78
2023/10/09 03:09:55;;;;;;;13.43;7.45;;;14.90;99.90;;;;;;4958593;28;20119;-78
2023/10/09 03:12:26;;;;;;;13.70;7.43;;;14.90;99.90;;;;;;4958557;28;20030;-78
2023/10/09 03:14:51;;;;;;;13.00;6.65;;;14.90;99.90;;;;;;4976648;28;20573;-79
2023/10/09 03:17:18;;;;;;;11.95;6.97;;;14.90;99.90;;;;;;4971652;28;20034;-78
2023/10/09 03:19:43;;;;;;;11.38;6.65;;;14.90;99.90;;;;;;4973153;28;20495;-79
2023/10/09 03:22:10;;;;;;;13.15;7.55;;;15.00;99.90;;;;;;4974668;28;20088;-78
2023/10/09 03:24:36;;;;;;;17.52;8.15;;;15.10;99.90;;;;;;4974585;28;20422;-77
2023/10/09 03:27:02;;;;;;;16.20;7.30;;;15.10;99.90;;;;;;4954015;28;20395;-78
2023/10/09 03:29:28;;;;;;;12.43;7.07;;;15.00;99.90;;;;;;4972944;28;20509;-78
2023/10/09 03:31:55;;;;;;;15.23;8.68;;;15.00;99.90;;;;;;4958834;28;20062;-78
2023/10/09 03:34:21;;;;;;;11.43;7.25;;;15.00;99.90;;;;;;4976772;28;20023;-78
2023/10/09 03:36:47;;;;;;;18.25;8.95;;;15.00;99.90;;;;;;4968633;28;20035;-78
2023/10/09 03:41:58;;;;;;;13.75;6.85;;;15.00;99.90;;;;;;4974041;28;20163;-77
2023/10/09 03:44:27;;;;;;;13.07;7.40;;;15.00;99.90;;;;;;4935413;28;20063;-78
2023/10/09 03:46:53;;;;;;;12.75;6.95;;;15.10;99.90;;;;;;4973572;28;20038;-77
2023/10/09 03:49:25;;;;;;;15.70;6.82;;;15.10;99.90;;;;;;4955854;28;20038;-78
2023/10/09 03:51:51;;;;;;;11.98;6.53;;;15.10;99.90;;;;;;4975793;28;20061;-78
2023/10/09 03:54:20;;;;;;;11.65;7.30;;;15.20;99.90;;;;;;4970880;28;20395;-78
2023/10/09 03:56:49;;;;;;;17.52;7.43;;;15.10;99.90;;;;;;4954688;28;20031;-78
2023/10/09 03:59:19;;;;;;;11.75;6.65;;;15.20;99.90;;;;;;4977024;28;20045;-79
2023/10/09 04:01:46;;;;;;;11.25;7.00;;;15.30;99.90;;;;;;4956575;28;20052;-79
2023/10/09 04:04:14;;;;;;;12.10;7.00;;;15.30;99.90;;;;;;4962257;28;20030;-78
2023/10/09 04:06:39;;;;;;;11.55;6.60;;;15.20;99.90;;;;;;4960973;28;20038;-78
2023/10/09 04:09:27;;;;;;;9.80;6.10;;;15.20;99.90;;;;;;4961630;28;20046;-79
2023/10/09 04:15:00;;;;;;;13.18;7.38;;;15.20;99.90;;;;;;4976609;28;20089;-79
2023/10/09 04:22:42;;;;;;;14.38;7.82;;;15.20;99.90;;;;;;4983083;28;20041;-78
2023/10/09 04:25:14;;;;;;;14.98;6.68;;;15.20;99.90;;;;;;4979479;28;20081;-78
2023/10/09 04:27:44;;;;;;;11.77;5.88;;;15.20;99.90;;;;;;4976894;28;20423;-78
2023/10/09 04:30:15;;;;;;;12.88;7.75;;;15.20;99.90;;;;;;4971049;28;20520;-79
2023/10/09 04:32:44;;;;;;;13.50;7.55;;;15.20;99.90;;;;;;4971306;28;20046;-78
2023/10/09 04:35:22;;;;;;;11.85;7.15;;;15.30;99.90;;;;;;4976487;28;20126;-78
2023/10/09 04:38:04;;;;;;;11.43;7.03;;;15.20;99.90;;;;;;4976390;28;20030;-78
2023/10/09 04:40:51;;;;;;;12.45;6.22;;;15.20;99.90;;;;;;4959137;28;20503;-78
2023/10/09 04:43:22;;;;;;;11.25;7.35;;;15.40;99.90;;;;;;4963426;28;20437;-78
2023/10/09 04:46:07;;;;;;;13.73;7.05;;;15.30;99.90;;;;;;4977183;28;20039;-77
2023/10/09 04:48:37;;;;;;;13.38;6.93;;;15.30;99.90;;;;;;4963358;28;20034;-78
2023/10/09 04:51:21;;;;;;;13.20;7.43;;;15.30;99.90;;;;;;4973588;28;20196;-78
2023/10/09 04:53:50;;;;;;;11.57;6.80;;;15.30;99.90;;;;;;4963401;28;20112;-76
2023/10/09 04:56:16;;;;;;;11.52;6.80;;;15.40;99.90;;;;;;4960245;28;20037;-78
2023/10/09 04:58:41;;;;;;;12.73;8.18;;;15.30;99.90;;;;;;4974120;28;20030;-77
2023/10/09 05:01:14;;;;;;;13.15;7.45;;;15.40;99.90;;;;;;4976650;28;20498;-78
2023/10/09 05:06:21;;;;;;;14.95;7.55;;;15.30;99.90;;;;;;4974766;28;20034;-78
2023/10/09 05:08:53;;;;;;;12.05;6.80;;;15.30;99.90;;;;;;4960280;28;20093;-78
2023/10/09 05:14:14;;;;;;;10.98;6.70;;;15.30;99.90;;;;;;4974396;28;20097;-78
2023/10/09 05:16:54;;;;;;;13.57;7.18;;;15.30;99.90;;;;;;4974087;28;20081;-78
2023/10/09 05:19:33;;;;;;;14.05;7.97;;;15.30;99.90;;;;;;4960164;28;20040;-78
2023/10/09 05:22:04;;;;;;;17.65;7.47;;;15.40;99.90;;;;;;4977757;28;20383;-78
2023/10/09 05:24:42;;;;;;;16.88;8.07;;;15.30;99.90;;;;;;4972804;28;20031;-78
2023/10/09 05:27:45;;;;;;;12.10;7.30;;;15.30;99.90;;;;;;4958254;28;20067;-78
2023/10/09 05:30:24;;;;;;;15.75;6.88;;;15.40;99.90;;;;;;4980179;28;20500;-78
2023/10/09 05:32:58;;;;;;;15.45;8.93;;;15.30;99.90;;;;;;4962055;28;20063;-78
2023/10/09 05:35:39;;;;;;;19.27;8.77;;;15.30;99.90;;;;;;4963186;28;20027;-78
2023/10/09 05:38:15;;;;;;;15.15;8.75;;;15.30;99.90;;;;;;4945023;28;20062;-78
2023/10/09 05:40:43;;;;;;;12.80;6.82;;;15.20;99.90;;;;;;4968780;28;20026;-78
2023/10/09 05:44:15;;;;;;;13.05;6.78;;;15.20;99.90;;;;;;4963785;28;20039;-78
2023/10/09 05:46:14;;;;;;;13.02;8.60;;;15.30;99.90;;;;;;4977662;28;20027;-78
2023/10/09 06:04:33;;;;;;;13.00;6.88;;;15.40;99.90;;;;;;4980202;28;20042;-78
2023/10/09 06:07:12;;;;;;;14.95;8.27;;;15.40;99.90;;;;;;4953053;28;20031;-78
2023/10/09 06:09:52;;;;;;;12.95;7.68;;;15.30;99.90;;;;;;4954392;28;20076;-77
2023/10/09 06:12:33;;;;;;;12.85;7.50;;;15.40;99.90;;;;;;4965766;28;20549;-77
2023/10/09 06:15:18;;;;;;;12.13;7.88;;;15.30;99.90;;;;;;4959829;28;20490;-78
2023/10/09 06:17:50;;;;;;;10.10;6.03;;;15.50;99.90;;;;;;4948110;28;20040;-78
2023/10/09 06:23:15;;;;;;;13.40;7.93;;;15.40;99.90;;;;;;4975856;28;20419;-78
2023/10/09 06:25:50;;;;;;;14.13;7.45;;;15.40;99.90;;;;;;4969248;28;20565;-77
2023/10/09 06:28:18;;;;;;;14.77;7.60;;;15.40;99.90;;;;;;4963669;28;20092;-77
2023/10/09 06:30:47;;;;;;;10.57;6.82;;;15.40;99.90;;;;;;4972326;28;20612;-77
2023/10/09 06:33:29;;;;;;;14.43;8.00;;;15.40;99.90;;;;;;4978774;28;20951;-78
2023/10/09 06:35:55;;;;;;;10.70;6.20;;;15.50;99.90;;;;;;4974247;28;20187;-77
2023/10/09 06:38:33;;;;;;;17.98;8.73;;;15.50;99.90;;;;;;4975955;28;20490;-77
2023/10/09 06:43:31;;;;;;;11.65;6.75;;;15.50;99.90;;;;;;4955639;28;20042;-77
2023/10/09 06:48:44;;;;;;;10.90;6.05;;;15.60;99.90;;;;;;4968001;28;20445;-78
2023/10/09 06:54:05;;;;;;;13.68;7.00;;;15.60;99.90;;;;;;4979075;28;20034;-77
2023/10/09 07:01:46;;;;;;;20.60;9.05;;;15.80;99.90;;;;;;4975779;28;20138;-77
2023/10/09 07:04:18;;;;;;;16.00;7.82;;;15.80;99.90;;;;;;4954301;28;20121;-77
2023/10/09 07:06:50;;;;;;;14.20;7.45;;;15.80;99.90;;;;;;4957309;28;20043;-78
2023/10/09 07:09:20;;;;;;;12.05;7.50;;;15.70;99.90;;;;;;4975419;28;20049;-77
2023/10/09 07:15:01;;;;;;;10.85;6.20;;;15.80;99.90;;;;;;4957114;28;20117;-77
2023/10/09 07:20:09;;;;;;;13.23;6.65;;;15.80;99.90;;;;;;4974122;28;20029;-78
2023/10/09 07:22:39;;;;;;;14.30;8.85;;;15.90;99.90;;;;;;4977165;28;20037;-77
2023/10/09 07:25:14;;;;;;;12.27;7.70;;;15.80;99.90;;;;;;4957567;28;20475;-79
2023/10/09 07:27:53;;;;;;;15.40;8.98;;;15.90;99.90;;;;;;4972334;28;20064;-78
2023/10/09 07:33:16;;;;;;;14.93;8.23;;;15.90;99.90;;;;;;4978862;28;20041;-78
2023/10/09 07:38:11;;;;;;;13.40;7.78;;;16.00;99.90;;;;;;4987284;28;20107;-77
2023/10/09 07:48:55;;;;;;;15.98;7.47;;;16.10;99.90;;;;;;4955748;28;20521;-77
2023/10/09 07:51:30;;;;;;;11.23;7.43;;;16.20;99.90;;;;;;4977317;28;20070;-77
2023/10/09 07:54:08;;;;;;;17.10;9.40;;;16.20;99.90;;;;;;4976855;28;20789;-78
2023/10/09 07:56:53;;;;;;;17.40;11.02;;;16.30;99.90;;;;;;4981594;28;20344;-78
2023/10/09 07:59:19;;;;;;;13.68;9.07;;;16.40;99.90;;;;;;4969607;28;20042;-78
2023/10/09 08:02:05;;;;;;;11.93;7.40;;;16.50;99.90;;;;;;4976294;28;20713;-78
2023/10/09 08:04:47;;;;;;;11.95;7.78;;;16.50;99.90;;;;;;4977783;28;20376;-78
2023/10/09 08:07:25;;;;;;;16.00;9.77;;;16.60;99.90;;;;;;4960825;28;20054;-78
2023/10/09 08:11:19;;;;;;;21.55;11.02;;;16.60;99.90;;;;;;4977935;28;20605;-77
2023/10/09 08:12:57;;;;;;;16.50;10.18;;;16.60;99.90;;;;;;4981590;28;20030;-78
2023/10/09 08:15:26;;;;;;;;;;;16.60;99.90;;;;;;4976005;28;20036;-77
2023/10/09 08:18:03;;;;;;;13.68;7.82;;;16.70;99.90;;;;;;4962152;28;20306;-77
2023/10/09 08:20:45;;;;;;;12.30;7.57;;;16.70;99.90;;;;;;4985268;28;20033;-79
2023/10/09 08:23:22;;;;;;;14.98;7.65;;;16.80;99.90;;;;;;4961223;28;20038;-78
2023/10/09 08:26:10;;;;;;;15.15;8.13;;;16.90;99.90;;;;;;4976073;28;20419;-78
2023/10/09 08:28:45;;;;;;;15.90;9.23;;;17.00;99.90;;;;;;4979356;28;20037;-78
2023/10/09 08:33:59;;;;;;;16.25;9.02;;;17.00;99.90;;;;;;4976624;28;20038;-78
2023/10/09 08:36:28;;;;;;;14.77;6.95;;;17.10;99.90;;;;;;4958860;28;20030;-78
2023/10/09 08:39:01;;;;;;;11.45;6.97;;;17.10;99.90;;;;;;4975392;28;20851;-79
2023/10/09 08:41:30;;;;;;;22.30;9.00;;;17.10;99.90;;;;;;4974390;28;20031;-77
2023/10/09 08:43:56;;;;;;;16.70;7.93;;;17.10;99.90;;;;;;4961066;28;20671;-79
2023/10/09 08:46:29;;;;;;;12.77;5.95;;;17.10;99.90;;;;;;4976255;28;20475;-79
2023/10/09 08:48:56;;;;;;;14.05;9.00;;;17.10;99.90;;;;;;4965740;28;20117;-79
2023/10/09 08:51:23;;;;;;;19.45;10.23;;;17.10;99.90;;;;;;4974084;28;20038;-79
2023/10/09 08:53:48;;;;;;;16.20;11.00;;;17.00;99.90;;;;;;4975225;28;20040;-79
2023/10/09 08:56:21;;;;;;;16.00;8.32;;;17.00;99.90;;;;;;4958879;28;20436;-79
2023/10/09 08:58:51;;;;;;;22.23;11.13;;;17.10;99.90;;;;;;4950492;28;20041;-79
2023/10/09 09:01:19;;;;;;;14.38;9.15;;;17.00;99.90;;;;;;4977935;28;20061;-78
2023/10/09 09:03:45;;;;;;;14.13;7.65;;;16.90;99.90;;;;;;4965984;28;20041;-79
2023/10/09 09:06:11;;;;;;;15.20;9.07;;;16.90;99.90;;;;;;4976562;28;20034;-79
2023/10/09 09:08:37;;;;;;;16.50;9.60;;;17.00;99.90;;;;;;4963130;28;20510;-78
2023/10/09 09:11:18;;;;;;;20.23;10.98;;;17.00;99.90;;;;;;4960408;28;20496;-79
2023/10/09 09:13:50;;;;;;;15.48;8.27;;;17.10;99.90;;;;;;4950815;28;20042;-79
2023/10/09 09:16:20;;;;;;;19.85;11.27;;;17.10;99.90;;;;;;4963020;28;20083;-79
2023/10/09 09:21:38;;;;;;;18.20;10.48;;;17.40;99.90;;;;;;4963314;28;20034;-78
2023/10/09 09:24:15;;;;;;;12.48;7.20;;;17.50;99.90;;;;;;4977422;28;20034;-79
2023/10/09 09:26:58;;;;;;;16.42;9.43;;;17.70;99.90;;;;;;4960319;28;20042;-79
2023/10/09 09:29:36;;;;;;;16.80;8.63;;;17.90;99.90;;;;;;4979435;28;20089;-78
2023/10/09 09:32:15;;;;;;;17.73;10.88;;;18.10;99.90;;;;;;4973970;28;20031;-79
2023/10/09 09:34:57;;;;;;;10.95;7.65;;;18.20;99.90;;;;;;4962633;28;20434;-78
2023/10/09 09:37:50;;;;;;;15.60;7.70;;;18.40;99.90;;;;;;4972984;28;20072;-79
2023/10/09 09:40:27;;;;;;;17.15;8.25;;;18.60;99.90;;;;;;4972649;28;20041;-79
2023/10/09 09:42:56;;;;;;;12.75;7.68;;;18.60;99.90;;;;;;4944330;28;20549;-80
2023/10/09 09:45:24;;;;;;;12.15;7.18;;;18.80;99.90;;;;;;4961916;28;20386;-79
2023/10/09 09:47:52;;;;;;;15.90;9.35;;;19.10;99.90;;;;;;4976635;28;20077;-78
2023/10/09 09:50:26;;;;;;;10.48;4.93;;;19.20;99.90;;;;;;4966745;28;20129;-78
2023/10/09 09:52:55;;;;;;;14.75;6.80;;;19.20;99.90;;;;;;4984746;28;20070;-79
2023/10/09 09:55:30;;;;;;;15.30;6.82;;;19.40;99.90;;;;;;4981934;28;20042;-79
2023/10/09 09:57:57;;;;;;;14.05;6.55;;;19.50;99.90;;;;;;4974475;28;20034;-79
2023/10/09 10:03:08;;;;;;;14.40;7.22;;;19.50;99.90;;;;;;4976600;28;20030;-79
2023/10/09 10:05:33;;;;;;;18.98;8.00;;;19.70;99.90;;;;;;4973086;28;20093;-80
2023/10/09 10:08:00;;;;;;;16.08;8.27;;;19.80;99.90;;;;;;4973914;28;20073;-79
2023/10/09 10:10:37;;;;;;;16.08;7.25;;;19.80;99.90;;;;;;4977390;28;20069;-79
2023/10/09 10:13:04;;;;;;;19.35;8.77;;;19.90;99.90;;;;;;4959356;28;20034;-80
2023/10/09 10:15:57;;;;;;;10.23;6.57;;;20.10;99.90;;;;;;4974648;28;20031;-80
2023/10/09 10:18:24;;;;;;;10.25;5.18;;;20.20;99.90;;;;;;4958107;28;20050;-80
2023/10/09 10:21:33;;;;;;;12.52;6.90;;;20.30;99.90;;;;;;4959679;28;20375;-79
2023/10/09 10:24:10;;;;;;;14.50;7.65;;;20.30;99.90;;;;;;4954217;28;20475;-80
2023/10/09 10:26:36;;;;;;;17.13;7.80;;;20.50;99.90;;;;;;4958639;28;20061;-80
2023/10/09 10:29:23;;;;;;;11.15;6.60;;;20.50;99.90;;;;;;4980763;28;20049;-79
2023/10/09 10:31:56;;;;;;;13.27;7.45;;;20.50;99.90;;;;;;4978162;28;20536;-79
2023/10/09 10:34:24;;;;;;;12.75;8.82;;;20.70;99.90;;;;;;4961928;28;20058;-79
2023/10/09 10:36:58;;;;;;;14.63;7.78;;;20.80;99.90;;;;;;4961633;28;20054;-79
2023/10/09 10:39:42;;;;;;;12.93;7.72;;;20.70;99.90;;;;;;4967852;28;20034;-79
2023/10/09 10:42:09;;;;;;;16.05;8.00;;;20.70;99.90;;;;;;4963390;28;20375;-79
2023/10/09 10:44:38;;;;;;;11.75;6.22;;;20.80;99.90;;;;;;4975666;28;20041;-81
2023/10/09 10:47:10;;;;;;;14.60;8.10;;;21.00;99.90;;;;;;4962819;28;20558;-79
2023/10/09 10:49:43;;;;;;;9.25;5.63;;;21.00;99.90;;;;;;4947575;28;20096;-79
2023/10/09 10:52:19;;;;;;;12.80;7.90;;;21.00;99.90;;;;;;4972650;28;20042;-80
2023/10/09 10:54:45;;;;;;;14.10;7.35;;;21.00;99.90;;;;;;4978834;28;20466;-80
2023/10/09 10:57:29;;;;;;;10.10;6.28;;;21.20;99.90;;;;;;4951265;28;20048;-79
2023/10/09 11:02:43;;;;;;;10.55;5.03;;;21.30;99.90;;;;;;4973593;28;20053;-79
2023/10/09 11:05:23;;;;;;;10.25;6.47;;;21.40;99.90;;;;;;4962076;28;20039;-80
2023/10/09 11:07:57;;;;;;;13.23;6.30;;;21.40;99.90;;;;;;4979825;28;20041;-80
2023/10/09 11:10:28;;;;;;;18.70;8.45;;;21.50;99.90;;;;;;4974168;28;20668;-81
2023/10/09 11:15:45;;;;;;;11.13;6.47;;;21.60;99.90;;;;;;4981759;28;20054;-79
2023/10/09 11:18:20;;;;;;;22.42;8.88;;;21.70;99.90;;;;;;4965517;28;20027;-80
2023/10/09 11:23:38;;;;;;;12.30;6.07;;;21.80;99.90;;;;;;4979320;28;20114;-80
2023/10/09 11:26:25;;;;;;;15.05;9.85;;;22.00;99.90;;;;;;4962896;28;20022;-80
2023/10/09 11:32:05;;;;;;;17.35;8.52;;;22.00;99.90;;;;;;4961929;28;20041;-80
2023/10/09 11:34:35;;;;;;;14.65;7.75;;;22.00;99.90;;;;;;4977063;28;20027;-80
2023/10/09 11:39:58;;;;;;;13.77;7.97;;;22.10;99.90;;;;;;4965428;28;20055;-81
2023/10/09 11:45:28;;;;;;;11.20;7.33;;;22.10;99.90;;;;;;4978968;28;20045;-80
2023/10/09 11:48:21;;;;;;;15.95;7.60;;;22.20;99.90;;;;;;4964499;28;20526;-80
2023/10/09 11:55:50;;;;;;;14.68;7.90;;;22.10;99.90;;;;;;4972900;28;20120;-80
2023/10/09 11:58:22;;;;;;;17.58;7.50;;;22.30;99.90;;;;;;4974121;28;20027;-80
2023/10/09 12:00:50;;;;;;;21.45;9.65;;;22.30;99.90;;;;;;4957817;28;20034;-80
2023/10/09 12:03:16;;;;;;;12.23;7.10;;;22.40;99.90;;;;;;4960116;28;20029;-80
2023/10/09 12:05:45;;;;;;;15.27;7.72;;;22.40;99.90;;;;;;4975206;28;20109;-80
2023/10/09 12:08:15;;;;;;;13.93;8.32;;;22.40;99.90;;;;;;4972668;28;20113;-80
2023/10/09 12:10:41;;;;;;;10.73;6.45;;;22.50;99.90;;;;;;4956449;28;20043;-80
2023/10/09 12:13:07;;;;;;;12.55;7.88;;;22.50;99.90;;;;;;4957853;28;20069;-80
2023/10/09 12:15:39;;;;;;;13.05;7.43;;;22.50;99.90;;;;;;4972391;28;20065;-80
2023/10/09 12:18:08;;;;;;;12.45;8.27;;;22.40;99.90;;;;;;4972848;28;20846;-80
2023/10/09 12:20:34;;;;;;;14.68;6.60;;;22.50;99.90;;;;;;4943834;28;20030;-79
2023/10/09 12:23:01;;;;;;;15.73;8.25;;;22.60;99.90;;;;;;4957735;28;20473;-80
2023/10/09 12:25:31;;;;;;;15.30;6.40;;;22.60;99.90;;;;;;4970259;28;20030;-80
2023/10/09 12:28:01;;;;;;;15.65;9.10;;;22.60;99.90;;;;;;4972749;28;20403;-80
2023/10/09 12:30:30;;;;;;;13.80;7.13;;;22.70;99.90;;;;;;4975882;28;20037;-80
2023/10/09 12:32:57;;;;;;;13.77;7.50;;;22.80;99.90;;;;;;4946358;28;20045;-79
2023/10/09 12:35:26;;;;;;;16.73;8.60;;;22.70;99.90;;;;;;4963114;28;20030;-79
2023/10/09 12:37:54;;;;;;;12.70;8.20;;;22.80;99.90;;;;;;4942717;28;20048;-80
2023/10/09 12:40:29;;;;;;;12.13;7.90;;;22.90;99.90;;;;;;4976237;28;20614;-79
2023/10/09 12:42:55;;;;;;;14.15;6.40;;;22.90;99.90;;;;;;4979839;28;20522;-80
2023/10/09 12:45:26;;;;;;;12.43;7.82;;;22.90;99.90;;;;;;4975981;28;20027;-80
2023/10/09 12:47:53;;;;;;;21.67;9.50;;;22.90;99.90;;;;;;4974753;28;20039;-80
2023/10/09 12:50:27;;;;;;;17.40;7.22;;;22.90;99.90;;;;;;4958924;28;20066;-79
2023/10/09 12:53:02;;;;;;;18.08;9.05;;;22.80;99.90;;;;;;4976995;28;20493;-80
2023/10/09 12:55:34;;;;;;;10.77;6.18;;;22.90;99.90;;;;;;4961001;28;20031;-80
2023/10/09 12:58:07;;;;;;;13.10;7.38;;;23.00;99.90;;;;;;4960166;28;20118;-81
2023/10/09 13:00:37;;;;;;;18.63;10.68;;;23.00;99.90;;;;;;4975974;28;20391;-80
2023/10/09 13:03:21;;;;;;;18.50;8.50;;;23.00;99.90;;;;;;4962727;28;20023;-79
2023/10/09 13:05:54;;;;;;;12.93;6.35;;;22.90;99.90;;;;;;4972938;28;20683;-79
2023/10/09 13:08:21;;;;;;;10.07;5.55;;;23.00;99.90;;;;;;4975426;28;20113;-80
2023/10/09 13:10:58;;;;;;;12.35;6.75;;;23.00;99.90;;;;;;4967367;28;20042;-79
2023/10/09 13:13:26;;;;;;;15.23;8.65;;;23.00;99.90;;;;;;4965705;28;20518;-79
2023/10/09 13:15:53;;;;;;;14.60;6.95;;;23.10;99.90;;;;;;4974333;28;20485;-81
2023/10/09 13:18:18;;;;;;;14.63;6.97;;;23.10;99.90;;;;;;4975055;28;20022;-80
2023/10/09 13:20:45;;;;;;;14.82;8.45;;;23.10;99.90;;;;;;4974932;28;20033;-80
2023/10/09 13:23:14;;;;;;;9.80;6.53;;;23.10;99.90;;;;;;4960219;28;20406;-80
2023/10/09 13:25:40;;;;;;;13.07;7.68;;;23.10;99.90;;;;;;4966950;28;20575;-80
2023/10/09 13:28:05;;;;;;;13.07;7.80;;;23.20;99.90;;;;;;4960853;28;20039;-80
2023/10/09 13:30:38;;;;;;;13.27;7.63;;;23.30;99.90;;;;;;4959318;28;20026;-80
2023/10/09 13:33:05;;;;;;;15.98;7.60;;;23.30;99.90;;;;;;4974964;28;20027;-80
2023/10/09 13:35:37;;;;;;;12.00;7.35;;;23.30;99.90;;;;;;4969177;28;20046;-80
2023/10/09 13:38:08;;;;;;;19.35;8.77;;;23.50;99.90;;;;;;4973412;28;20026;-80
2023/10/09 13:40:35;;;;;;;16.60;8.15;;;23.50;99.90;;;;;;4974853;28;20073;-80
2023/10/09 13:43:00;;;;;;;9.32;5.43;;;23.50;99.90;;;;;;4974570;28;20064;-80
2023/10/09 13:45:27;;;;;;;13.75;6.78;;;23.60;99.90;;;;;;4977145;28;20030;-80
2023/10/09 13:47:56;;;;;;;18.02;9.18;;;23.60;99.90;;;;;;4975694;28;20445;-80
2023/10/09 13:50:28;;;;;;;8.45;4.40;;;23.60;99.90;;;;;;4969077;28;20507;-79
2023/10/09 13:52:54;;;;;;;12.13;8.55;;;23.70;99.90;;;;;;4955627;28;20026;-80
2023/10/09 13:55:20;;;;;;;16.15;9.65;;;23.70;99.90;;;;;;4957733;28;20845;-80
2023/10/09 13:57:46;;;;;;;12.82;7.60;;;23.70;99.90;;;;;;4976002;28;20030;-80
2023/10/09 14:00:32;;;;;;;12.75;7.80;;;23.60;99.90;;;;;;4972285;28;20035;-80
2023/10/09 14:03:01;;;;;;;10.95;7.55;;;23.60;99.90;;;;;;4955179;28;20045;-81
2023/10/09 14:05:29;;;;;;;12.02;7.30;;;23.60;99.90;;;;;;4971320;28;20057;-80
2023/10/09 14:07:59;;;;;;;11.95;7.55;;;23.50;99.90;;;;;;4956972;28;20034;-81
2023/10/09 14:10:30;;;;;;;14.68;8.57;;;23.40;99.90;;;;;;4957285;28;20560;-81
2023/10/09 14:12:56;;;;;;;14.23;8.43;;;23.50;99.90;;;;;;4966330;28;20080;-80
2023/10/09 14:15:23;;;;;;;17.08;9.90;;;23.40;99.90;;;;;;4960637;28;20457;-80
2023/10/09 14:17:55;;;;;;;15.05;7.95;;;23.30;99.90;;;;;;4978274;28;20042;-80
2023/10/09 14:20:31;;;;;;;19.95;11.52;;;23.30;99.90;;;;;;4962051;28;20486;-80
2023/10/09 14:23:06;;;;;;;;;;;23.30;99.90;;;;;;4959071;28;20498;-80
2023/10/09 14:25:39;;;;;;;13.35;7.75;;;23.20;99.90;;;;;;4955366;28;19929;-80
2023/10/09 14:28:10;;;;;;;14.45;7.72;;;23.10;99.90;;;;;;4958049;28;20042;-81
2023/10/09 14:30:42;;;;;;;15.02;8.60;;;23.10;99.90;;;;;;4971925;28;20035;-81
2023/10/09 14:33:12;;;;;;;18.25;8.35;;;23.00;99.90;;;;;;4965443;28;20036;-80
2023/10/09 14:35:41;;;;;;;17.92;9.15;;;23.00;99.90;;;;;;4960106;28;20038;-80
2023/10/09 14:38:14;;;;;;;16.17;9.30;;;22.90;99.90;;;;;;4961139;28;20034;-81
2023/10/09 14:40:47;;;;;;;19.17;10.20;;;22.90;99.90;;;;;;4973591;28;20125;-82
2023/10/09 14:43:19;;;;;;;17.63;8.82;;;22.80;99.90;;;;;;4967796;28;20042;-81
2023/10/09 14:45:48;;;;;;;21.15;11.57;;;22.80;99.90;;;;;;4959143;28;20035;-81
2023/10/09 14:48:17;;;;;;;13.90;7.85;;;22.70;99.90;;;;;;4947893;28;20054;-81
2023/10/09 14:50:48;;;;;;;17.58;9.05;;;22.70;99.90;;;;;;4972117;28;20042;-81
2023/10/09 14:53:15;;;;;;;12.85;8.35;;;22.60;99.90;;;;;;4952931;28;20269;-81
2023/10/09 14:55:44;;;;;;;15.10;9.35;;;22.50;99.90;;;;;;4975634;28;20038;-81
2023/10/09 14:58:11;;;;;;;19.67;10.40;;;22.50;99.90;;;;;;4955820;28;20042;-80
2023/10/09 15:00:36;;;;;;;12.65;7.78;;;22.50;99.90;;;;;;4944635;28;20042;-81
2023/10/09 15:03:03;;;;;;;17.13;10.85;;;22.40;99.90;;;;;;4974318;28;20440;-81
2023/10/09 15:05:31;;;;;;;10.90;7.28;;;22.40;99.90;;;;;;4944239;28;20108;-81